Rolla, Canada
Current Conditions -  °F | °C
As of 2:00 AM on Tuesday 21 Oct 2014 (Local Time) from CYDQ Reporting Station
Clear Clear  
Wind Chill: 34°   Ceiling: Unl
Heat Index: 37°   Visibility: 9mi
Dew Point: 36°   Wind: 5mph
Humidity: 93%   Direction: 30°NNE
Pressure: 29.53"   Gusts: NA
Location:  55.9°N, 120.14°W
Report Text: CYDQ 210800Z AUTO 03004KT 310V070 9SM CLR 03/02 A2953 RMK SLP018
Loading
Personal Weather Stations






























Interactive Weather Map
Tropical Storm Tracking
New forecast layout! Learn more

10-Day Weather Forecast

Advertisements
Track Severe Weather on mobile